sensor_id;sensor_type;location;lat;lon;timestamp;P1;durP1;ratioP1;P2;durP2;ratioP2
25409;SDS011;13339;50.840;4.346;2023-03-04T00:00:19;20.33;;;12.67;;
25409;SDS011;13339;50.840;4.346;2023-03-04T00:02:45;26.50;;;12.10;;
25409;SDS011;13339;50.840;4.346;2023-03-04T00:05:10;20.90;;;12.53;;
25409;SDS011;13339;50.840;4.346;2023-03-04T00:07:36;23.60;;;12.37;;
25409;SDS011;13339;50.840;4.346;2023-03-04T00:10:01;21.33;;;13.30;;
25409;SDS011;13339;50.840;4.346;2023-03-04T00:12:27;23.77;;;12.63;;
25409;SDS011;13339;50.840;4.346;2023-03-04T00:14:53;24.87;;;11.90;;
25409;SDS011;13339;50.840;4.346;2023-03-04T00:17:19;20.27;;;10.47;;
25409;SDS011;13339;50.840;4.346;2023-03-04T00:19:44;18.97;;;9.23;;
25409;SDS011;13339;50.840;4.346;2023-03-04T00:22:10;27.03;;;10.20;;
25409;SDS011;13339;50.840;4.346;2023-03-04T00:24:35;23.50;;;10.53;;
25409;SDS011;13339;50.840;4.346;2023-03-04T00:27:01;22.30;;;10.27;;
25409;SDS011;13339;50.840;4.346;2023-03-04T00:29:26;20.10;;;9.90;;
25409;SDS011;13339;50.840;4.346;2023-03-04T00:31:52;24.87;;;10.53;;
25409;SDS011;13339;50.840;4.346;2023-03-04T00:34:18;25.40;;;10.20;;
25409;SDS011;13339;50.840;4.346;2023-03-04T00:36:44;30.30;;;10.90;;
25409;SDS011;13339;50.840;4.346;2023-03-04T00:39:10;22.67;;;9.83;;
25409;SDS011;13339;50.840;4.346;2023-03-04T00:41:36;21.80;;;10.70;;
25409;SDS011;13339;50.840;4.346;2023-03-04T00:44:02;17.83;;;10.67;;
25409;SDS011;13339;50.840;4.346;2023-03-04T00:46:28;21.97;;;10.30;;
25409;SDS011;13339;50.840;4.346;2023-03-04T00:48:53;23.87;;;10.63;;
25409;SDS011;13339;50.840;4.346;2023-03-04T00:51:19;24.17;;;11.00;;
25409;SDS011;13339;50.840;4.346;2023-03-04T00:53:44;24.80;;;11.30;;
25409;SDS011;13339;50.840;4.346;2023-03-04T00:56:11;25.93;;;10.73;;
25409;SDS011;13339;50.840;4.346;2023-03-04T00:58:37;20.83;;;11.67;;
25409;SDS011;13339;50.840;4.346;2023-03-04T01:01:04;26.67;;;11.50;;
25409;SDS011;13339;50.840;4.346;2023-03-04T01:03:32;29.07;;;10.93;;
25409;SDS011;13339;50.840;4.346;2023-03-04T01:05:58;26.13;;;10.90;;
25409;SDS011;13339;50.840;4.346;2023-03-04T01:08:24;28.73;;;11.40;;
25409;SDS011;13339;50.840;4.346;2023-03-04T01:10:50;29.50;;;10.70;;
25409;SDS011;13339;50.840;4.346;2023-03-04T01:13:16;24.00;;;10.97;;
25409;SDS011;13339;50.840;4.346;2023-03-04T01:15:42;21.27;;;11.23;;
25409;SDS011;13339;50.840;4.346;2023-03-04T01:18:08;23.07;;;10.27;;
25409;SDS011;13339;50.840;4.346;2023-03-04T01:20:34;24.33;;;10.97;;
25409;SDS011;13339;50.840;4.346;2023-03-04T01:22:59;18.73;;;9.97;;
25409;SDS011;13339;50.840;4.346;2023-03-04T01:25:25;27.40;;;10.73;;
25409;SDS011;13339;50.840;4.346;2023-03-04T01:27:50;26.93;;;9.90;;
25409;SDS011;13339;50.840;4.346;2023-03-04T01:30:16;27.13;;;10.57;;
25409;SDS011;13339;50.840;4.346;2023-03-04T01:32:42;21.63;;;9.57;;
25409;SDS011;13339;50.840;4.346;2023-03-04T01:35:07;23.20;;;9.83;;
25409;SDS011;13339;50.840;4.346;2023-03-04T01:37:33;19.77;;;9.27;;
25409;SDS011;13339;50.840;4.346;2023-03-04T01:39:59;18.10;;;9.10;;
25409;SDS011;13339;50.840;4.346;2023-03-04T01:42:25;23.83;;;9.63;;
25409;SDS011;13339;50.840;4.346;2023-03-04T01:44:54;20.50;;;9.37;;
25409;SDS011;13339;50.840;4.346;2023-03-04T01:47:20;29.30;;;9.03;;
25409;SDS011;13339;50.840;4.346;2023-03-04T01:49:49;27.17;;;9.53;;
25409;SDS011;13339;50.840;4.346;2023-03-04T01:52:17;22.47;;;8.97;;
25409;SDS011;13339;50.840;4.346;2023-03-04T01:54:43;22.13;;;8.73;;
25409;SDS011;13339;50.840;4.346;2023-03-04T01:57:19;22.83;;;9.17;;
25409;SDS011;13339;50.840;4.346;2023-03-04T01:59:46;26.33;;;8.97;;
25409;SDS011;13339;50.840;4.346;2023-03-04T02:02:32;28.73;;;10.03;;
25409;SDS011;13339;50.840;4.346;2023-03-04T02:04:57;20.40;;;10.80;;
25409;SDS011;13339;50.840;4.346;2023-03-04T02:07:23;30.10;;;9.03;;
25409;SDS011;13339;50.840;4.346;2023-03-04T02:09:49;30.70;;;10.00;;
25409;SDS011;13339;50.840;4.346;2023-03-04T02:12:14;30.73;;;9.10;;
25409;SDS011;13339;50.840;4.346;2023-03-04T02:14:40;25.40;;;8.43;;
25409;SDS011;13339;50.840;4.346;2023-03-04T02:17:09;26.97;;;9.47;;
25409;SDS011;13339;50.840;4.346;2023-03-04T02:19:54;27.37;;;9.77;;
25409;SDS011;13339;50.840;4.346;2023-03-04T02:22:25;22.43;;;7.97;;
25409;SDS011;13339;50.840;4.346;2023-03-04T02:24:52;25.60;;;8.23;;
25409;SDS011;13339;50.840;4.346;2023-03-04T02:27:22;20.23;;;7.53;;
25409;SDS011;13339;50.840;4.346;2023-03-04T02:29:48;17.57;;;7.70;;
25409;SDS011;13339;50.840;4.346;2023-03-04T02:32:13;21.57;;;9.13;;
25409;SDS011;13339;50.840;4.346;2023-03-04T02:34:49;24.23;;;9.40;;
25409;SDS011;13339;50.840;4.346;2023-03-04T02:37:18;26.50;;;8.90;;
25409;SDS011;13339;50.840;4.346;2023-03-04T02:39:45;25.73;;;9.20;;
25409;SDS011;13339;50.840;4.346;2023-03-04T02:42:12;34.27;;;9.00;;
25409;SDS011;13339;50.840;4.346;2023-03-04T02:44:39;19.20;;;7.80;;
25409;SDS011;13339;50.840;4.346;2023-03-04T02:47:08;23.53;;;8.93;;
25409;SDS011;13339;50.840;4.346;2023-03-04T02:49:36;30.30;;;9.10;;
25409;SDS011;13339;50.840;4.346;2023-03-04T02:52:04;30.47;;;9.57;;
25409;SDS011;13339;50.840;4.346;2023-03-04T02:54:39;23.00;;;9.20;;
25409;SDS011;13339;50.840;4.346;2023-03-04T02:57:06;20.80;;;8.87;;
25409;SDS011;13339;50.840;4.346;2023-03-04T02:59:33;24.40;;;8.10;;
25409;SDS011;13339;50.840;4.346;2023-03-04T03:02:00;20.23;;;7.63;;
25409;SDS011;13339;50.840;4.346;2023-03-04T03:04:25;28.03;;;8.93;;
25409;SDS011;13339;50.840;4.346;2023-03-04T03:06:51;27.60;;;8.77;;
25409;SDS011;13339;50.840;4.346;2023-03-04T03:09:17;24.97;;;8.87;;
25409;SDS011;13339;50.840;4.346;2023-03-04T03:11:44;25.73;;;8.87;;
25409;SDS011;13339;50.840;4.346;2023-03-04T03:14:09;30.90;;;8.67;;
25409;SDS011;13339;50.840;4.346;2023-03-04T03:16:35;29.17;;;9.17;;
25409;SDS011;13339;50.840;4.346;2023-03-04T03:19:01;25.77;;;8.40;;
25409;SDS011;13339;50.840;4.346;2023-03-04T03:21:26;29.57;;;8.00;;
25409;SDS011;13339;50.840;4.346;2023-03-04T03:23:52;27.03;;;8.13;;
25409;SDS011;13339;50.840;4.346;2023-03-04T03:26:18;18.97;;;8.23;;
25409;SDS011;13339;50.840;4.346;2023-03-04T03:28:44;25.30;;;8.40;;
25409;SDS011;13339;50.840;4.346;2023-03-04T03:31:09;24.30;;;8.87;;
25409;SDS011;13339;50.840;4.346;2023-03-04T03:33:35;26.63;;;9.27;;
25409;SDS011;13339;50.840;4.346;2023-03-04T03:36:01;24.30;;;8.43;;
25409;SDS011;13339;50.840;4.346;2023-03-04T03:38:26;24.10;;;9.03;;
25409;SDS011;13339;50.840;4.346;2023-03-04T03:40:52;30.03;;;9.07;;
25409;SDS011;13339;50.840;4.346;2023-03-04T03:43:18;24.57;;;8.77;;
25409;SDS011;13339;50.840;4.346;2023-03-04T03:45:43;23.73;;;9.50;;
25409;SDS011;13339;50.840;4.346;2023-03-04T03:48:09;21.00;;;8.50;;
25409;SDS011;13339;50.840;4.346;2023-03-04T03:50:35;21.43;;;8.63;;
25409;SDS011;13339;50.840;4.346;2023-03-04T03:53:00;21.77;;;8.53;;
25409;SDS011;13339;50.840;4.346;2023-03-04T03:55:26;30.40;;;10.30;;
25409;SDS011;13339;50.840;4.346;2023-03-04T03:57:52;23.20;;;9.00;;
25409;SDS011;13339;50.840;4.346;2023-03-04T04:00:18;26.37;;;9.20;;
25409;SDS011;13339;50.840;4.346;2023-03-04T04:02:44;25.47;;;9.13;;
25409;SDS011;13339;50.840;4.346;2023-03-04T04:05:10;23.97;;;9.87;;
25409;SDS011;13339;50.840;4.346;2023-03-04T04:07:36;22.20;;;9.20;;
25409;SDS011;13339;50.840;4.346;2023-03-04T04:10:02;23.23;;;9.80;;
25409;SDS011;13339;50.840;4.346;2023-03-04T04:12:29;30.83;;;10.00;;
25409;SDS011;13339;50.840;4.346;2023-03-04T04:14:55;27.00;;;10.00;;
25409;SDS011;13339;50.840;4.346;2023-03-04T04:17:21;20.93;;;9.33;;
25409;SDS011;13339;50.840;4.346;2023-03-04T04:19:46;30.37;;;10.20;;
25409;SDS011;13339;50.840;4.346;2023-03-04T04:22:13;25.67;;;9.53;;
25409;SDS011;13339;50.840;4.346;2023-03-04T04:24:40;23.80;;;9.97;;
25409;SDS011;13339;50.840;4.346;2023-03-04T04:27:06;30.70;;;10.17;;
25409;SDS011;13339;50.840;4.346;2023-03-04T04:29:32;24.90;;;11.10;;
25409;SDS011;13339;50.840;4.346;2023-03-04T04:31:58;30.33;;;11.50;;
25409;SDS011;13339;50.840;4.346;2023-03-04T04:34:24;18.47;;;8.77;;
25409;SDS011;13339;50.840;4.346;2023-03-04T04:36:50;30.33;;;10.70;;
25409;SDS011;13339;50.840;4.346;2023-03-04T04:39:16;22.47;;;9.27;;
25409;SDS011;13339;50.840;4.346;2023-03-04T04:41:42;28.73;;;10.10;;
25409;SDS011;13339;50.840;4.346;2023-03-04T04:44:09;25.60;;;10.77;;
25409;SDS011;13339;50.840;4.346;2023-03-04T04:46:35;27.03;;;10.73;;
25409;SDS011;13339;50.840;4.346;2023-03-04T04:49:02;29.37;;;10.73;;
25409;SDS011;13339;50.840;4.346;2023-03-04T04:51:27;26.50;;;11.03;;
25409;SDS011;13339;50.840;4.346;2023-03-04T04:53:53;28.10;;;10.43;;
25409;SDS011;13339;50.840;4.346;2023-03-04T04:56:21;32.27;;;11.30;;
25409;SDS011;13339;50.840;4.346;2023-03-04T04:58:50;23.93;;;10.63;;
25409;SDS011;13339;50.840;4.346;2023-03-04T05:01:16;20.17;;;10.73;;
25409;SDS011;13339;50.840;4.346;2023-03-04T05:03:42;26.80;;;10.80;;
25409;SDS011;13339;50.840;4.346;2023-03-04T05:06:08;33.30;;;11.60;;
25409;SDS011;13339;50.840;4.346;2023-03-04T05:08:35;28.30;;;10.97;;
25409;SDS011;13339;50.840;4.346;2023-03-04T05:11:01;24.73;;;10.30;;
25409;SDS011;13339;50.840;4.346;2023-03-04T05:13:27;32.47;;;10.60;;
25409;SDS011;13339;50.840;4.346;2023-03-04T05:15:53;31.07;;;10.47;;
25409;SDS011;13339;50.840;4.346;2023-03-04T05:18:23;23.10;;;10.60;;
25409;SDS011;13339;50.840;4.346;2023-03-04T05:20:50;29.90;;;11.27;;
25409;SDS011;13339;50.840;4.346;2023-03-04T05:23:17;21.73;;;10.23;;
25409;SDS011;13339;50.840;4.346;2023-03-04T05:25:43;27.63;;;9.63;;
25409;SDS011;13339;50.840;4.346;2023-03-04T05:28:08;31.53;;;8.90;;
25409;SDS011;13339;50.840;4.346;2023-03-04T05:30:36;16.83;;;8.87;;
25409;SDS011;13339;50.840;4.346;2023-03-04T05:33:06;28.60;;;10.13;;
25409;SDS011;13339;50.840;4.346;2023-03-04T05:35:33;24.67;;;9.90;;
25409;SDS011;13339;50.840;4.346;2023-03-04T05:37:59;23.03;;;9.83;;
25409;SDS011;13339;50.840;4.346;2023-03-04T05:40:26;22.33;;;9.90;;
25409;SDS011;13339;50.840;4.346;2023-03-04T05:42:52;29.30;;;9.93;;
25409;SDS011;13339;50.840;4.346;2023-03-04T05:45:17;31.00;;;10.50;;
25409;SDS011;13339;50.840;4.346;2023-03-04T05:47:43;28.60;;;10.80;;
25409;SDS011;13339;50.840;4.346;2023-03-04T05:50:09;29.17;;;9.50;;
25409;SDS011;13339;50.840;4.346;2023-03-04T05:52:35;19.47;;;8.20;;
25409;SDS011;13339;50.840;4.346;2023-03-04T05:55:00;26.50;;;9.43;;
25409;SDS011;13339;50.840;4.346;2023-03-04T05:57:26;25.03;;;9.00;;
25409;SDS011;13339;50.840;4.346;2023-03-04T05:59:51;28.40;;;8.50;;
25409;SDS011;13339;50.840;4.346;2023-03-04T06:02:17;27.33;;;9.27;;
25409;SDS011;13339;50.840;4.346;2023-03-04T06:04:42;22.97;;;9.03;;
25409;SDS011;13339;50.840;4.346;2023-03-04T06:07:08;23.47;;;8.33;;
25409;SDS011;13339;50.840;4.346;2023-03-04T06:09:33;37.43;;;7.97;;
25409;SDS011;13339;50.840;4.346;2023-03-04T06:11:59;23.90;;;7.43;;
25409;SDS011;13339;50.840;4.346;2023-03-04T06:14:25;21.30;;;7.27;;
25409;SDS011;13339;50.840;4.346;2023-03-04T06:16:50;25.00;;;6.80;;
25409;SDS011;13339;50.840;4.346;2023-03-04T06:19:16;16.57;;;6.23;;
25409;SDS011;13339;50.840;4.346;2023-03-04T06:21:41;15.70;;;6.03;;
25409;SDS011;13339;50.840;4.346;2023-03-04T06:24:07;22.47;;;5.90;;
25409;SDS011;13339;50.840;4.346;2023-03-04T06:26:33;20.17;;;5.77;;
25409;SDS011;13339;50.840;4.346;2023-03-04T06:28:58;24.17;;;6.20;;
25409;SDS011;13339;50.840;4.346;2023-03-04T06:31:24;13.17;;;5.53;;
25409;SDS011;13339;50.840;4.346;2023-03-04T06:33:49;24.17;;;5.93;;
25409;SDS011;13339;50.840;4.346;2023-03-04T06:36:15;15.60;;;5.73;;
25409;SDS011;13339;50.840;4.346;2023-03-04T06:38:41;20.77;;;5.90;;
25409;SDS011;13339;50.840;4.346;2023-03-04T06:41:07;26.07;;;6.33;;
25409;SDS011;13339;50.840;4.346;2023-03-04T06:43:34;23.40;;;6.30;;
25409;SDS011;13339;50.840;4.346;2023-03-04T06:45:59;15.57;;;5.70;;
25409;SDS011;13339;50.840;4.346;2023-03-04T06:48:25;24.63;;;6.47;;
25409;SDS011;13339;50.840;4.346;2023-03-04T06:50:51;15.60;;;5.70;;
25409;SDS011;13339;50.840;4.346;2023-03-04T06:53:17;21.33;;;6.27;;
25409;SDS011;13339;50.840;4.346;2023-03-04T06:55:42;16.60;;;6.37;;
25409;SDS011;13339;50.840;4.346;2023-03-04T06:58:08;23.00;;;6.47;;
25409;SDS011;13339;50.840;4.346;2023-03-04T07:00:34;24.00;;;6.10;;
25409;SDS011;13339;50.840;4.346;2023-03-04T07:02:59;20.33;;;6.20;;
25409;SDS011;13339;50.840;4.346;2023-03-04T07:05:25;16.50;;;6.20;;
25409;SDS011;13339;50.840;4.346;2023-03-04T07:07:51;25.53;;;6.57;;
25409;SDS011;13339;50.840;4.346;2023-03-04T07:10:17;21.90;;;6.70;;
25409;SDS011;13339;50.840;4.346;2023-03-04T07:12:43;19.60;;;6.93;;
25409;SDS011;13339;50.840;4.346;2023-03-04T07:15:09;19.87;;;8.07;;
25409;SDS011;13339;50.840;4.346;2023-03-04T07:17:35;19.93;;;8.50;;
25409;SDS011;13339;50.840;4.346;2023-03-04T07:20:01;28.33;;;8.83;;
25409;SDS011;13339;50.840;4.346;2023-03-04T07:22:27;29.80;;;8.90;;
25409;SDS011;13339;50.840;4.346;2023-03-04T07:24:52;26.10;;;9.57;;
25409;SDS011;13339;50.840;4.346;2023-03-04T07:27:18;25.03;;;10.30;;
25409;SDS011;13339;50.840;4.346;2023-03-04T07:29:43;30.60;;;11.00;;
25409;SDS011;13339;50.840;4.346;2023-03-04T07:32:10;24.50;;;11.03;;
25409;SDS011;13339;50.840;4.346;2023-03-04T07:34:35;19.93;;;9.93;;
25409;SDS011;13339;50.840;4.346;2023-03-04T07:37:01;24.30;;;11.30;;
25409;SDS011;13339;50.840;4.346;2023-03-04T07:39:26;28.40;;;11.30;;
25409;SDS011;13339;50.840;4.346;2023-03-04T07:41:52;26.10;;;11.40;;
25409;SDS011;13339;50.840;4.346;2023-03-04T07:44:18;21.90;;;9.97;;
25409;SDS011;13339;50.840;4.346;2023-03-04T07:46:43;24.77;;;9.93;;
25409;SDS011;13339;50.840;4.346;2023-03-04T07:49:10;31.00;;;9.93;;
25409;SDS011;13339;50.840;4.346;2023-03-04T07:51:37;23.23;;;10.30;;
25409;SDS011;13339;50.840;4.346;2023-03-04T07:54:02;17.23;;;10.00;;
25409;SDS011;13339;50.840;4.346;2023-03-04T07:56:29;27.10;;;9.90;;
25409;SDS011;13339;50.840;4.346;2023-03-04T07:58:56;23.20;;;8.47;;
25409;SDS011;13339;50.840;4.346;2023-03-04T08:01:23;24.17;;;9.07;;
25409;SDS011;13339;50.840;4.346;2023-03-04T08:03:51;15.93;;;8.33;;
25409;SDS011;13339;50.840;4.346;2023-03-04T08:06:17;17.60;;;7.90;;
25409;SDS011;13339;50.840;4.346;2023-03-04T08:08:44;18.47;;;7.77;;
25409;SDS011;13339;50.840;4.346;2023-03-04T08:11:11;19.93;;;8.00;;
25409;SDS011;13339;50.840;4.346;2023-03-04T08:13:39;14.13;;;6.03;;
25409;SDS011;13339;50.840;4.346;2023-03-04T08:16:05;16.77;;;5.87;;
25409;SDS011;13339;50.840;4.346;2023-03-04T08:18:32;14.67;;;5.13;;
25409;SDS011;13339;50.840;4.346;2023-03-04T08:20:58;13.50;;;6.43;;
25409;SDS011;13339;50.840;4.346;2023-03-04T08:23:24;13.60;;;5.70;;
25409;SDS011;13339;50.840;4.346;2023-03-04T08:25:49;14.27;;;6.20;;
25409;SDS011;13339;50.840;4.346;2023-03-04T08:28:15;15.13;;;5.97;;
25409;SDS011;13339;50.840;4.346;2023-03-04T08:30:41;24.67;;;5.93;;
25409;SDS011;13339;50.840;4.346;2023-03-04T08:33:07;17.87;;;6.13;;
25409;SDS011;13339;50.840;4.346;2023-03-04T08:35:37;20.63;;;6.23;;
25409;SDS011;13339;50.840;4.346;2023-03-04T08:38:04;19.33;;;6.10;;
25409;SDS011;13339;50.840;4.346;2023-03-04T08:40:31;18.27;;;6.90;;
25409;SDS011;13339;50.840;4.346;2023-03-04T08:42:56;14.60;;;7.37;;
25409;SDS011;13339;50.840;4.346;2023-03-04T08:45:22;13.43;;;6.70;;
25409;SDS011;13339;50.840;4.346;2023-03-04T08:47:48;14.00;;;6.23;;
25409;SDS011;13339;50.840;4.346;2023-03-04T08:50:15;15.97;;;7.07;;
25409;SDS011;13339;50.840;4.346;2023-03-04T08:52:40;15.87;;;6.73;;
25409;SDS011;13339;50.840;4.346;2023-03-04T08:55:06;23.80;;;6.63;;
25409;SDS011;13339;50.840;4.346;2023-03-04T08:57:32;12.93;;;5.97;;
25409;SDS011;13339;50.840;4.346;2023-03-04T08:59:57;14.60;;;6.17;;
25409;SDS011;13339;50.840;4.346;2023-03-04T09:02:23;14.00;;;5.63;;
25409;SDS011;13339;50.840;4.346;2023-03-04T09:04:49;14.63;;;5.60;;
25409;SDS011;13339;50.840;4.346;2023-03-04T09:07:14;12.63;;;5.10;;
25409;SDS011;13339;50.840;4.346;2023-03-04T09:09:40;15.73;;;5.27;;
25409;SDS011;13339;50.840;4.346;2023-03-04T09:12:06;18.77;;;5.80;;
25409;SDS011;13339;50.840;4.346;2023-03-04T09:14:32;11.83;;;5.37;;
25409;SDS011;13339;50.840;4.346;2023-03-04T09:16:59;15.20;;;5.10;;
25409;SDS011;13339;50.840;4.346;2023-03-04T09:19:26;13.27;;;4.80;;
25409;SDS011;13339;50.840;4.346;2023-03-04T09:21:52;14.63;;;4.63;;
25409;SDS011;13339;50.840;4.346;2023-03-04T09:24:19;14.23;;;4.40;;
25409;SDS011;13339;50.840;4.346;2023-03-04T09:26:48;14.23;;;4.63;;
25409;SDS011;13339;50.840;4.346;2023-03-04T09:29:15;20.17;;;5.90;;
25409;SDS011;13339;50.840;4.346;2023-03-04T09:31:40;22.73;;;5.33;;
25409;SDS011;13339;50.840;4.346;2023-03-04T09:34:06;13.87;;;5.27;;
25409;SDS011;13339;50.840;4.346;2023-03-04T09:36:32;19.83;;;4.90;;
25409;SDS011;13339;50.840;4.346;2023-03-04T09:38:58;16.47;;;5.40;;
25409;SDS011;13339;50.840;4.346;2023-03-04T09:41:26;12.90;;;5.40;;
25409;SDS011;13339;50.840;4.346;2023-03-04T09:44:02;12.60;;;5.83;;
25409;SDS011;13339;50.840;4.346;2023-03-04T09:46:35;20.47;;;6.67;;
25409;SDS011;13339;50.840;4.346;2023-03-04T09:49:03;22.90;;;5.90;;
25409;SDS011;13339;50.840;4.346;2023-03-04T09:56:35;16.93;;;5.87;;
25409;SDS011;13339;50.840;4.346;2023-03-04T09:59:12;17.80;;;5.33;;
25409;SDS011;13339;50.840;4.346;2023-03-04T10:01:52;19.33;;;5.40;;
25409;SDS011;13339;50.840;4.346;2023-03-04T10:04:29;17.10;;;5.37;;
25409;SDS011;13339;50.840;4.346;2023-03-04T10:07:20;23.27;;;5.67;;
25409;SDS011;13339;50.840;4.346;2023-03-04T10:09:52;12.83;;;5.63;;
25409;SDS011;13339;50.840;4.346;2023-03-04T10:12:23;12.43;;;5.33;;
25409;SDS011;13339;50.840;4.346;2023-03-04T10:14:58;16.10;;;5.60;;
25409;SDS011;13339;50.840;4.346;2023-03-04T10:17:29;18.30;;;5.70;;
25409;SDS011;13339;50.840;4.346;2023-03-04T10:20:25;12.47;;;5.40;;
25409;SDS011;13339;50.840;4.346;2023-03-04T10:22:57;16.83;;;6.00;;
25409;SDS011;13339;50.840;4.346;2023-03-04T10:25:32;19.43;;;5.63;;
25409;SDS011;13339;50.840;4.346;2023-03-04T10:33:33;13.40;;;5.40;;
25409;SDS011;13339;50.840;4.346;2023-03-04T10:36:05;11.93;;;5.20;;
25409;SDS011;13339;50.840;4.346;2023-03-04T10:38:35;14.00;;;5.80;;
25409;SDS011;13339;50.840;4.346;2023-03-04T10:41:13;15.10;;;6.10;;
25409;SDS011;13339;50.840;4.346;2023-03-04T10:43:41;16.73;;;6.07;;
25409;SDS011;13339;50.840;4.346;2023-03-04T10:46:11;15.00;;;5.60;;
25409;SDS011;13339;50.840;4.346;2023-03-04T10:48:37;22.43;;;5.97;;
25409;SDS011;13339;50.840;4.346;2023-03-04T10:51:11;17.50;;;6.00;;
25409;SDS011;13339;50.840;4.346;2023-03-04T10:53:47;18.23;;;5.57;;
25409;SDS011;13339;50.840;4.346;2023-03-04T11:02:14;16.90;;;5.37;;
25409;SDS011;13339;50.840;4.346;2023-03-04T11:04:53;14.53;;;5.83;;
25409;SDS011;13339;50.840;4.346;2023-03-04T11:07:20;17.13;;;5.70;;
25409;SDS011;13339;50.840;4.346;2023-03-04T11:09:47;22.10;;;6.00;;
25409;SDS011;13339;50.840;4.346;2023-03-04T11:12:14;14.30;;;5.53;;
25409;SDS011;13339;50.840;4.346;2023-03-04T11:14:45;11.63;;;6.53;;
25409;SDS011;13339;50.840;4.346;2023-03-04T11:19:46;17.83;;;5.67;;
25409;SDS011;13339;50.840;4.346;2023-03-04T11:22:17;17.20;;;5.73;;
25409;SDS011;13339;50.840;4.346;2023-03-04T11:24:47;19.93;;;6.53;;
25409;SDS011;13339;50.840;4.346;2023-03-04T11:27:28;17.87;;;6.00;;
25409;SDS011;13339;50.840;4.346;2023-03-04T11:30:15;12.93;;;6.43;;
25409;SDS011;13339;50.840;4.346;2023-03-04T11:32:51;10.50;;;5.90;;
25409;SDS011;13339;50.840;4.346;2023-03-04T11:35:23;18.20;;;6.80;;
25409;SDS011;13339;50.840;4.346;2023-03-04T11:40:49;15.60;;;6.53;;
25409;SDS011;13339;50.840;4.346;2023-03-04T11:43:33;13.23;;;6.20;;
25409;SDS011;13339;50.840;4.346;2023-03-04T11:49:00;14.67;;;6.10;;
25409;SDS011;13339;50.840;4.346;2023-03-04T11:51:56;13.20;;;5.50;;
25409;SDS011;13339;50.840;4.346;2023-03-04T12:00:47;16.00;;;6.40;;
25409;SDS011;13339;50.840;4.346;2023-03-04T12:05:58;14.87;;;6.00;;
25409;SDS011;13339;50.840;4.346;2023-03-04T12:11:57;26.30;;;15.17;;
25409;SDS011;13339;50.840;4.346;2023-03-04T12:22:25;85.33;;;43.87;;
25409;SDS011;13339;50.840;4.346;2023-03-04T12:25:38;17.07;;;10.40;;
25409;SDS011;13339;50.840;4.346;2023-03-04T12:28:15;17.70;;;7.93;;
25409;SDS011;13339;50.840;4.346;2023-03-04T12:30:49;9.90;;;4.63;;
25409;SDS011;13339;50.840;4.346;2023-03-04T12:33:35;11.47;;;4.83;;
25409;SDS011;13339;50.840;4.346;2023-03-04T12:36:34;15.07;;;4.60;;
25409;SDS011;13339;50.840;4.346;2023-03-04T12:39:44;14.37;;;5.70;;
25409;SDS011;13339;50.840;4.346;2023-03-04T12:42:29;18.40;;;7.47;;
25409;SDS011;13339;50.840;4.346;2023-03-04T12:45:19;16.33;;;5.40;;
25409;SDS011;13339;50.840;4.346;2023-03-04T12:50:35;16.57;;;5.17;;
25409;SDS011;13339;50.840;4.346;2023-03-04T12:53:54;7.93;;;3.97;;
25409;SDS011;13339;50.840;4.346;2023-03-04T12:56:09;10.10;;;3.60;;
25409;SDS011;13339;50.840;4.346;2023-03-04T12:58:52;11.40;;;4.53;;
25409;SDS011;13339;50.840;4.346;2023-03-04T13:01:23;5.90;;;3.20;;
25409;SDS011;13339;50.840;4.346;2023-03-04T13:04:04;12.23;;;4.10;;
25409;SDS011;13339;50.840;4.346;2023-03-04T13:12:03;9.20;;;3.67;;
25409;SDS011;13339;50.840;4.346;2023-03-04T13:14:39;10.63;;;3.57;;
25409;SDS011;13339;50.840;4.346;2023-03-04T13:17:41;11.37;;;3.40;;
25409;SDS011;13339;50.840;4.346;2023-03-04T13:20:10;11.27;;;3.33;;
25409;SDS011;13339;50.840;4.346;2023-03-04T13:22:52;17.70;;;3.60;;
25409;SDS011;13339;50.840;4.346;2023-03-04T13:25:38;15.90;;;4.00;;
25409;SDS011;13339;50.840;4.346;2023-03-04T13:35:48;8.67;;;3.27;;
25409;SDS011;13339;50.840;4.346;2023-03-04T13:43:57;8.20;;;2.97;;
25409;SDS011;13339;50.840;4.346;2023-03-04T14:01:33;5.37;;;3.43;;
25409;SDS011;13339;50.840;4.346;2023-03-04T14:04:00;11.70;;;3.20;;
25409;SDS011;13339;50.840;4.346;2023-03-04T14:06:39;9.23;;;3.27;;
25409;SDS011;13339;50.840;4.346;2023-03-04T14:09:17;9.07;;;3.43;;
25409;SDS011;13339;50.840;4.346;2023-03-04T14:11:46;5.37;;;2.37;;
25409;SDS011;13339;50.840;4.346;2023-03-04T14:14:14;6.33;;;3.40;;
25409;SDS011;13339;50.840;4.346;2023-03-04T14:16:46;11.97;;;3.43;;
25409;SDS011;13339;50.840;4.346;2023-03-04T14:19:24;15.40;;;3.20;;
25409;SDS011;13339;50.840;4.346;2023-03-04T14:21:55;8.23;;;2.80;;
25409;SDS011;13339;50.840;4.346;2023-03-04T14:24:23;7.30;;;3.20;;
25409;SDS011;13339;50.840;4.346;2023-03-04T14:26:49;3.57;;;2.37;;
25409;SDS011;13339;50.840;4.346;2023-03-04T14:29:28;5.17;;;3.17;;
25409;SDS011;13339;50.840;4.346;2023-03-04T14:31:54;8.80;;;3.10;;
25409;SDS011;13339;50.840;4.346;2023-03-04T14:34:23;5.70;;;2.83;;
25409;SDS011;13339;50.840;4.346;2023-03-04T14:36:52;3.93;;;2.60;;
25409;SDS011;13339;50.840;4.346;2023-03-04T14:39:18;4.73;;;2.50;;
25409;SDS011;13339;50.840;4.346;2023-03-04T14:41:46;5.30;;;3.03;;
25409;SDS011;13339;50.840;4.346;2023-03-04T14:46:49;7.80;;;4.70;;
25409;SDS011;13339;50.840;4.346;2023-03-04T14:49:20;6.70;;;4.00;;
25409;SDS011;13339;50.840;4.346;2023-03-04T14:51:47;5.83;;;3.67;;
25409;SDS011;13339;50.840;4.346;2023-03-04T14:57:00;5.20;;;3.33;;
25409;SDS011;13339;50.840;4.346;2023-03-04T14:59:45;4.97;;;3.57;;
25409;SDS011;13339;50.840;4.346;2023-03-04T15:02:18;10.03;;;3.73;;
25409;SDS011;13339;50.840;4.346;2023-03-04T15:04:48;9.43;;;3.50;;
25409;SDS011;13339;50.840;4.346;2023-03-04T15:07:16;4.20;;;2.90;;
25409;SDS011;13339;50.840;4.346;2023-03-04T15:09:49;4.97;;;3.17;;
25409;SDS011;13339;50.840;4.346;2023-03-04T15:12:23;3.33;;;2.70;;
25409;SDS011;13339;50.840;4.346;2023-03-04T15:14:52;5.50;;;2.60;;
25409;SDS011;13339;50.840;4.346;2023-03-04T15:25:12;7.57;;;2.83;;
25409;SDS011;13339;50.840;4.346;2023-03-04T15:27:43;3.10;;;2.40;;
25409;SDS011;13339;50.840;4.346;2023-03-04T15:30:29;4.43;;;2.57;;
25409;SDS011;13339;50.840;4.346;2023-03-04T15:32:57;5.47;;;2.67;;
25409;SDS011;13339;50.840;4.346;2023-03-04T15:35:24;3.97;;;2.27;;
25409;SDS011;13339;50.840;4.346;2023-03-04T15:37:53;5.63;;;2.77;;
25409;SDS011;13339;50.840;4.346;2023-03-04T15:40:23;6.07;;;2.43;;
25409;SDS011;13339;50.840;4.346;2023-03-04T15:42:54;5.27;;;2.90;;
25409;SDS011;13339;50.840;4.346;2023-03-04T15:45:29;4.70;;;2.47;;
25409;SDS011;13339;50.840;4.346;2023-03-04T15:48:01;6.83;;;2.80;;
25409;SDS011;13339;50.840;4.346;2023-03-04T15:50:32;5.93;;;2.70;;
25409;SDS011;13339;50.840;4.346;2023-03-04T15:53:03;6.33;;;2.17;;
25409;SDS011;13339;50.840;4.346;2023-03-04T15:55:42;7.13;;;2.07;;
25409;SDS011;13339;50.840;4.346;2023-03-04T15:58:09;6.87;;;2.63;;
25409;SDS011;13339;50.840;4.346;2023-03-04T16:00:36;18.57;;;3.30;;
25409;SDS011;13339;50.840;4.346;2023-03-04T16:03:02;7.00;;;2.87;;
25409;SDS011;13339;50.840;4.346;2023-03-04T16:05:27;9.07;;;3.43;;
25409;SDS011;13339;50.840;4.346;2023-03-04T16:07:53;10.60;;;2.90;;
25409;SDS011;13339;50.840;4.346;2023-03-04T16:12:48;11.43;;;3.17;;
25409;SDS011;13339;50.840;4.346;2023-03-04T16:15:15;8.43;;;3.67;;
25409;SDS011;13339;50.840;4.346;2023-03-04T16:17:46;11.63;;;3.50;;
25409;SDS011;13339;50.840;4.346;2023-03-04T16:20:13;7.80;;;3.27;;